Flight Track Log - Related Links

Times and Time Zones

All times are in EST time to prevent confusion due to time zone crossing. See the N888FM flight status page for this flight to view local times or setup timezone preferences in your user account.

Time Position Orientation Groundspeed Altitude Reporting Facility
EST Latitude Longitude Course Direction KTS MPH feet Rate Location/Type
Fri 04:11:00 PM 41.5800 -75.8400 340° North  Level FlightAware Approximate
Fri 04:12:00 PM 41.6438 -75.8719 340° North  Level FlightAware Approximate
Fri 04:13:00 PM 41.7072 -75.9048 334° Northwest  Level FlightAware Approximate
Fri 04:14:00 PM 41.7691 -75.9423 341° North  Level FlightAware Approximate
Fri 04:15:00 PM 41.8333 -75.9724 341° North  Level FlightAware Approximate
Fri 04:16:00 PM 41.8975 -76.0026 341° North  Level FlightAware Approximate
Fri 04:17:00 PM 41.9617 -76.0328 341° North  Level FlightAware Approximate
Fri 04:18:00 PM 42.0259 -76.0631 341° North  Level FlightAware Approximate
Fri 04:19:00 PM 42.0897 -76.0949 340° North  Level FlightAware Approximate
Fri 04:20:00 PM 42.1500 -76.1323 90° East  Level FlightAware Approximate
Fri 04:21:00 PM 42.1776 -76.0506 66° East  Level FlightAware Approximate
Fri 04:22:00 PM 42.2000 -75.9667 90° East  Level FlightAware Approximate
Fri 04:23:00 PM 42.2084 -75.9796 90° East  Level Estimated
Fri 04:24:00 PM 42.2084 -75.9796 90° East  Level Estimated
Fri 04:25:00 PM 42.2084 -75.9796 90° East  Level Estimated
Fri 04:26:00 PM 42.2084 -75.9796 90° East  Level Estimated
Fri 04:27:00 PM 42.2084 -75.9796 90° East  Level Estimated
Fri 04:28:00 PM 42.2084 -75.9796 90° East  Level Estimated
Fri 04:29:00 PM 42.2084 -75.9796 90° East  Level Estimated
Fri 04:30:00 PM 42.2084 -75.9796 90° East  Level Estimated

Login

Don't have an account? Register now (free) for customized features, flight alerts, and more!